sensor_id;sensor_type;location;lat;lon;timestamp;pressure;altitude;pressure_sealevel;temperature;humidity
45731;BME280;31440;48.584;13.460;2023-03-14T00:03:04;95301.16;;;5.28;100.00
45731;BME280;31440;48.584;13.460;2023-03-14T00:06:09;95256.38;;;5.10;100.00
45731;BME280;31440;48.584;13.460;2023-03-14T00:09:14;95263.50;;;4.83;100.00
45731;BME280;31440;48.584;13.460;2023-03-14T00:12:19;95265.06;;;5.08;100.00
45731;BME280;31440;48.584;13.460;2023-03-14T00:15:24;95253.03;;;5.08;100.00
45731;BME280;31440;48.584;13.460;2023-03-14T00:18:28;95244.16;;;5.15;100.00
45731;BME280;31440;48.584;13.460;2023-03-14T00:21:34;95208.13;;;4.53;100.00
45731;BME280;31440;48.584;13.460;2023-03-14T00:27:45;95260.81;;;4.86;100.00
45731;BME280;31440;48.584;13.460;2023-03-14T00:30:50;95280.09;;;4.98;100.00
45731;BME280;31440;48.584;13.460;2023-03-14T00:33:55;95295.91;;;4.25;100.00
45731;BME280;31440;48.584;13.460;2023-03-14T00:36:59;95289.38;;;4.38;100.00
45731;BME280;31440;48.584;13.460;2023-03-14T00:40:04;95286.81;;;4.60;100.00
45731;BME280;31440;48.584;13.460;2023-03-14T00:43:11;95268.28;;;4.72;100.00
45731;BME280;31440;48.584;13.460;2023-03-14T00:46:15;95254.38;;;4.76;100.00
45731;BME280;31440;48.584;13.460;2023-03-14T00:49:20;95242.19;;;5.00;100.00
45731;BME280;31440;48.584;13.460;2023-03-14T00:52:27;95263.56;;;4.82;100.00
45731;BME280;31440;48.584;13.460;2023-03-14T00:55:31;95279.56;;;4.90;100.00
45731;BME280;31440;48.584;13.460;2023-03-14T00:58:36;95279.63;;;5.09;100.00
45731;BME280;31440;48.584;13.460;2023-03-14T01:01:41;95271.31;;;5.22;100.00
45731;BME280;31440;48.584;13.460;2023-03-14T01:04:49;95254.66;;;5.11;100.00
45731;BME280;31440;48.584;13.460;2023-03-14T01:07:54;95239.75;;;5.17;100.00
45731;BME280;31440;48.584;13.460;2023-03-14T01:10:59;95246.25;;;5.26;100.00
45731;BME280;31440;48.584;13.460;2023-03-14T01:14:03;95262.13;;;4.96;100.00
45731;BME280;31440;48.584;13.460;2023-03-14T01:17:08;95264.47;;;5.01;100.00
45731;BME280;31440;48.584;13.460;2023-03-14T01:20:14;95274.09;;;4.97;100.00
45731;BME280;31440;48.584;13.460;2023-03-14T01:23:19;95269.50;;;5.04;100.00
45731;BME280;31440;48.584;13.460;2023-03-14T01:26:25;95274.16;;;4.76;100.00
45731;BME280;31440;48.584;13.460;2023-03-14T01:29:30;95264.19;;;4.67;100.00
45731;BME280;31440;48.584;13.460;2023-03-14T01:32:35;95253.28;;;5.02;100.00
45731;BME280;31440;48.584;13.460;2023-03-14T01:38:59;95210.03;;;4.70;100.00
45731;BME280;31440;48.584;13.460;2023-03-14T01:42:04;95170.63;;;4.68;100.00
45731;BME280;31440;48.584;13.460;2023-03-14T01:46:06;95174.69;;;4.73;100.00
45731;BME280;31440;48.584;13.460;2023-03-14T01:49:31;95164.38;;;4.53;100.00
45731;BME280;31440;48.584;13.460;2023-03-14T01:55:52;95188.19;;;4.38;100.00
45731;BME280;31440;48.584;13.460;2023-03-14T01:58:58;95225.94;;;4.37;100.00
45731;BME280;31440;48.584;13.460;2023-03-14T02:02:05;95229.69;;;4.50;100.00
45731;BME280;31440;48.584;13.460;2023-03-14T02:05:17;95216.69;;;3.89;100.00
45731;BME280;31440;48.584;13.460;2023-03-14T02:08:29;95228.69;;;4.54;100.00
45731;BME280;31440;48.584;13.460;2023-03-14T02:11:39;95260.63;;;4.49;100.00
45731;BME280;31440;48.584;13.460;2023-03-14T02:15:07;95290.19;;;4.17;100.00
45731;BME280;31440;48.584;13.460;2023-03-14T02:18:33;95295.06;;;4.24;100.00
45731;BME280;31440;48.584;13.460;2023-03-14T02:22:08;95271.91;;;4.03;100.00
45731;BME280;31440;48.584;13.460;2023-03-14T02:25:46;95282.41;;;3.97;100.00
45731;BME280;31440;48.584;13.460;2023-03-14T02:28:53;95289.09;;;3.54;100.00
45731;BME280;31440;48.584;13.460;2023-03-14T02:31:57;95286.81;;;3.93;100.00
45731;BME280;31440;48.584;13.460;2023-03-14T02:35:08;95286.84;;;4.15;100.00
45731;BME280;31440;48.584;13.460;2023-03-14T02:38:20;95291.94;;;4.38;100.00
45731;BME280;31440;48.584;13.460;2023-03-14T02:41:28;95279.91;;;4.81;100.00
45731;BME280;31440;48.584;13.460;2023-03-14T02:48:22;95286.66;;;5.05;100.00
45731;BME280;31440;48.584;13.460;2023-03-14T02:51:28;95298.72;;;4.83;100.00
45731;BME280;31440;48.584;13.460;2023-03-14T02:54:35;95277.16;;;4.85;100.00
45731;BME280;31440;48.584;13.460;2023-03-14T02:57:39;95296.38;;;4.99;100.00
45731;BME280;31440;48.584;13.460;2023-03-14T03:00:44;95293.16;;;4.93;100.00
45731;BME280;31440;48.584;13.460;2023-03-14T03:03:49;95284.00;;;5.27;100.00
45731;BME280;31440;48.584;13.460;2023-03-14T03:06:56;95266.69;;;5.10;100.00
45731;BME280;31440;48.584;13.460;2023-03-14T03:10:01;95276.28;;;5.07;100.00
45731;BME280;31440;48.584;13.460;2023-03-14T03:13:06;95287.66;;;4.81;100.00
45731;BME280;31440;48.584;13.460;2023-03-14T03:16:11;95292.13;;;4.97;100.00
45731;BME280;31440;48.584;13.460;2023-03-14T03:19:18;95283.28;;;5.03;100.00
45731;BME280;31440;48.584;13.460;2023-03-14T03:22:24;95276.91;;;5.52;100.00
45731;BME280;31440;48.584;13.460;2023-03-14T03:25:29;95288.56;;;5.41;100.00
45731;BME280;31440;48.584;13.460;2023-03-14T03:28:34;95292.94;;;5.59;100.00
45731;BME280;31440;48.584;13.460;2023-03-14T03:31:39;95290.94;;;5.65;100.00
45731;BME280;31440;48.584;13.460;2023-03-14T03:37:50;95294.66;;;5.58;100.00
45731;BME280;31440;48.584;13.460;2023-03-14T03:40:55;95291.47;;;5.72;100.00
45731;BME280;31440;48.584;13.460;2023-03-14T03:44:04;95298.03;;;5.79;100.00
45731;BME280;31440;48.584;13.460;2023-03-14T03:47:10;95294.00;;;5.74;100.00
45731;BME280;31440;48.584;13.460;2023-03-14T03:50:15;95302.94;;;5.46;100.00
45731;BME280;31440;48.584;13.460;2023-03-14T03:56:37;95295.66;;;5.36;100.00
45731;BME280;31440;48.584;13.460;2023-03-14T03:59:43;95298.63;;;5.06;100.00
45731;BME280;31440;48.584;13.460;2023-03-14T04:02:47;95292.88;;;5.20;100.00
45731;BME280;31440;48.584;13.460;2023-03-14T04:09:01;95254.13;;;5.23;100.00
45731;BME280;31440;48.584;13.460;2023-03-14T04:15:34;95259.22;;;5.63;100.00
45731;BME280;31440;48.584;13.460;2023-03-14T04:18:45;95257.47;;;5.64;100.00
45731;BME280;31440;48.584;13.460;2023-03-14T04:21:50;95246.97;;;5.69;100.00
45731;BME280;31440;48.584;13.460;2023-03-14T04:24:57;95245.81;;;5.93;100.00
45731;BME280;31440;48.584;13.460;2023-03-14T04:28:02;95260.41;;;5.75;100.00
45731;BME280;31440;48.584;13.460;2023-03-14T04:34:15;95250.28;;;5.89;100.00
45731;BME280;31440;48.584;13.460;2023-03-14T04:37:25;95241.97;;;5.45;100.00
45731;BME280;31440;48.584;13.460;2023-03-14T04:40:30;95237.81;;;5.99;100.00
45731;BME280;31440;48.584;13.460;2023-03-14T04:43:39;95239.75;;;5.75;100.00
45731;BME280;31440;48.584;13.460;2023-03-14T04:46:47;95243.44;;;5.88;100.00
45731;BME280;31440;48.584;13.460;2023-03-14T04:53:01;95249.47;;;5.70;100.00
45731;BME280;31440;48.584;13.460;2023-03-14T04:56:06;95247.63;;;5.53;100.00
45731;BME280;31440;48.584;13.460;2023-03-14T04:59:14;95256.88;;;5.18;100.00
45731;BME280;31440;48.584;13.460;2023-03-14T05:02:20;95261.75;;;5.45;100.00
45731;BME280;31440;48.584;13.460;2023-03-14T05:05:45;95265.31;;;5.22;100.00
45731;BME280;31440;48.584;13.460;2023-03-14T05:08:56;95223.69;;;4.92;100.00
45731;BME280;31440;48.584;13.460;2023-03-14T05:12:09;95264.03;;;5.32;100.00
45731;BME280;31440;48.584;13.460;2023-03-14T05:15:31;95262.84;;;5.39;100.00
45731;BME280;31440;48.584;13.460;2023-03-14T05:18:59;95263.81;;;5.37;100.00
45731;BME280;31440;48.584;13.460;2023-03-14T05:22:26;95262.78;;;5.41;100.00
45731;BME280;31440;48.584;13.460;2023-03-14T05:25:43;95258.94;;;5.51;100.00
45731;BME280;31440;48.584;13.460;2023-03-14T05:29:14;95259.25;;;5.43;100.00
45731;BME280;31440;48.584;13.460;2023-03-14T05:32:42;95245.53;;;5.61;100.00
45731;BME280;31440;48.584;13.460;2023-03-14T05:35:56;95245.28;;;5.68;100.00
45731;BME280;31440;48.584;13.460;2023-03-14T05:39:22;95223.88;;;5.47;100.00
45731;BME280;31440;48.584;13.460;2023-03-14T05:42:39;95244.91;;;5.75;100.00
45731;BME280;31440;48.584;13.460;2023-03-14T05:45:46;95252.47;;;5.80;100.00
45731;BME280;31440;48.584;13.460;2023-03-14T05:49:06;95249.09;;;5.78;100.00
45731;BME280;31440;48.584;13.460;2023-03-14T05:52:43;95245.00;;;5.74;100.00
45731;BME280;31440;48.584;13.460;2023-03-14T05:56:06;95241.63;;;5.72;100.00
45731;BME280;31440;48.584;13.460;2023-03-14T05:59:31;95240.81;;;5.71;100.00
45731;BME280;31440;48.584;13.460;2023-03-14T06:02:45;95248.41;;;5.93;100.00
45731;BME280;31440;48.584;13.460;2023-03-14T06:05:58;95250.44;;;5.86;100.00
45731;BME280;31440;48.584;13.460;2023-03-14T06:09:03;95255.88;;;5.99;100.00
45731;BME280;31440;48.584;13.460;2023-03-14T06:12:10;95254.91;;;6.01;100.00
45731;BME280;31440;48.584;13.460;2023-03-14T06:15:19;95250.50;;;6.04;100.00
45731;BME280;31440;48.584;13.460;2023-03-14T06:18:28;95220.75;;;5.78;100.00
45731;BME280;31440;48.584;13.460;2023-03-14T06:21:33;95256.34;;;6.07;100.00
45731;BME280;31440;48.584;13.460;2023-03-14T06:24:38;95254.13;;;6.18;100.00
45731;BME280;31440;48.584;13.460;2023-03-14T06:27:43;95249.09;;;6.15;100.00
45731;BME280;31440;48.584;13.460;2023-03-14T06:30:48;95232.38;;;6.05;100.00
45731;BME280;31440;48.584;13.460;2023-03-14T06:33:53;95227.28;;;6.04;100.00
45731;BME280;31440;48.584;13.460;2023-03-14T06:36:59;95222.47;;;6.15;100.00
45731;BME280;31440;48.584;13.460;2023-03-14T06:40:04;95224.13;;;6.16;100.00
45731;BME280;31440;48.584;13.460;2023-03-14T06:43:27;95169.78;;;5.83;100.00
45731;BME280;31440;48.584;13.460;2023-03-14T06:46:32;95201.22;;;6.27;100.00
45731;BME280;31440;48.584;13.460;2023-03-14T06:49:36;95213.91;;;6.31;100.00
45731;BME280;31440;48.584;13.460;2023-03-14T06:52:41;95213.41;;;6.42;100.00
45731;BME280;31440;48.584;13.460;2023-03-14T06:55:55;95215.66;;;6.31;100.00
45731;BME280;31440;48.584;13.460;2023-03-14T06:59:02;95209.84;;;6.45;100.00
45731;BME280;31440;48.584;13.460;2023-03-14T07:02:12;95222.34;;;6.54;100.00
45731;BME280;31440;48.584;13.460;2023-03-14T07:05:19;95208.13;;;6.26;100.00
45731;BME280;31440;48.584;13.460;2023-03-14T07:08:23;95213.16;;;6.29;100.00
45731;BME280;31440;48.584;13.460;2023-03-14T07:11:28;95207.81;;;6.15;100.00
45731;BME280;31440;48.584;13.460;2023-03-14T07:14:33;95215.41;;;6.37;100.00
45731;BME280;31440;48.584;13.460;2023-03-14T07:17:38;95211.63;;;6.61;100.00
45731;BME280;31440;48.584;13.460;2023-03-14T07:20:45;95216.78;;;6.61;100.00
45731;BME280;31440;48.584;13.460;2023-03-14T07:23:51;95205.19;;;6.70;100.00
45731;BME280;31440;48.584;13.460;2023-03-14T07:26:56;95215.03;;;6.62;100.00
45731;BME280;31440;48.584;13.460;2023-03-14T07:30:01;95208.66;;;6.86;100.00
45731;BME280;31440;48.584;13.460;2023-03-14T07:33:05;95204.72;;;6.79;100.00
45731;BME280;31440;48.584;13.460;2023-03-14T07:36:11;95201.97;;;6.82;100.00
45731;BME280;31440;48.584;13.460;2023-03-14T07:39:19;95202.75;;;6.67;100.00
45731;BME280;31440;48.584;13.460;2023-03-14T07:42:37;95205.31;;;6.50;100.00
45731;BME280;31440;48.584;13.460;2023-03-14T07:46:05;95205.63;;;6.61;100.00
45731;BME280;31440;48.584;13.460;2023-03-14T07:49:13;95189.00;;;6.66;100.00
45731;BME280;31440;48.584;13.460;2023-03-14T07:52:17;95216.63;;;6.64;100.00
45731;BME280;31440;48.584;13.460;2023-03-14T07:55:22;95207.69;;;6.89;100.00
45731;BME280;31440;48.584;13.460;2023-03-14T07:58:26;95203.13;;;6.77;100.00
45731;BME280;31440;48.584;13.460;2023-03-14T08:01:31;95219.63;;;6.91;100.00
45731;BME280;31440;48.584;13.460;2023-03-14T08:04:35;95218.94;;;6.88;100.00
45731;BME280;31440;48.584;13.460;2023-03-14T08:07:41;95205.13;;;7.55;100.00
45731;BME280;31440;48.584;13.460;2023-03-14T08:13:51;95217.84;;;7.09;100.00
45731;BME280;31440;48.584;13.460;2023-03-14T08:16:57;95212.44;;;6.96;100.00
45731;BME280;31440;48.584;13.460;2023-03-14T08:20:02;95225.06;;;6.85;100.00
45731;BME280;31440;48.584;13.460;2023-03-14T08:23:10;95231.22;;;6.83;100.00
45731;BME280;31440;48.584;13.460;2023-03-14T08:26:15;95242.94;;;6.73;100.00
45731;BME280;31440;48.584;13.460;2023-03-14T08:29:20;95229.09;;;7.25;100.00
45731;BME280;31440;48.584;13.460;2023-03-14T08:32:24;95225.72;;;7.23;100.00
45731;BME280;31440;48.584;13.460;2023-03-14T08:35:29;95225.81;;;7.22;100.00
45731;BME280;31440;48.584;13.460;2023-03-14T08:38:33;95232.91;;;7.01;100.00
45731;BME280;31440;48.584;13.460;2023-03-14T08:41:38;95229.72;;;7.13;100.00
45731;BME280;31440;48.584;13.460;2023-03-14T08:44:47;95188.34;;;6.96;100.00
45731;BME280;31440;48.584;13.460;2023-03-14T08:47:51;95226.91;;;7.00;100.00
45731;BME280;31440;48.584;13.460;2023-03-14T08:50:57;95231.06;;;7.03;100.00
45731;BME280;31440;48.584;13.460;2023-03-14T08:57:08;95222.31;;;7.23;100.00
45731;BME280;31440;48.584;13.460;2023-03-14T09:00:12;95220.91;;;7.33;100.00
45731;BME280;31440;48.584;13.460;2023-03-14T09:03:18;95209.31;;;7.24;100.00
45731;BME280;31440;48.584;13.460;2023-03-14T09:06:23;95220.78;;;7.19;100.00
45731;BME280;31440;48.584;13.460;2023-03-14T09:09:28;95199.75;;;7.09;100.00
45731;BME280;31440;48.584;13.460;2023-03-14T09:12:32;95215.41;;;7.23;100.00
45731;BME280;31440;48.584;13.460;2023-03-14T09:15:37;95220.59;;;6.89;100.00
45731;BME280;31440;48.584;13.460;2023-03-14T09:18:41;95225.72;;;7.23;100.00
45731;BME280;31440;48.584;13.460;2023-03-14T09:21:46;95225.59;;;7.09;100.00
45731;BME280;31440;48.584;13.460;2023-03-14T09:24:50;95232.84;;;7.35;100.00
45731;BME280;31440;48.584;13.460;2023-03-14T09:27:55;95231.38;;;7.31;100.00
45731;BME280;31440;48.584;13.460;2023-03-14T09:31:10;95232.13;;;7.16;100.00
45731;BME280;31440;48.584;13.460;2023-03-14T09:34:14;95232.31;;;7.13;100.00
45731;BME280;31440;48.584;13.460;2023-03-14T09:37:19;95230.06;;;7.23;100.00
45731;BME280;31440;48.584;13.460;2023-03-14T09:40:32;95199.44;;;6.98;100.00
45731;BME280;31440;48.584;13.460;2023-03-14T09:46:46;95232.00;;;7.35;100.00
45731;BME280;31440;48.584;13.460;2023-03-14T09:49:53;95231.03;;;7.37;100.00
45731;BME280;31440;48.584;13.460;2023-03-14T09:53:03;95235.81;;;7.45;100.00
45731;BME280;31440;48.584;13.460;2023-03-14T09:56:21;95233.38;;;7.42;100.00
45731;BME280;31440;48.584;13.460;2023-03-14T09:59:28;95232.44;;;7.76;100.00
45731;BME280;31440;48.584;13.460;2023-03-14T10:05:41;95226.22;;;7.96;100.00
45731;BME280;31440;48.584;13.460;2023-03-14T10:08:45;95219.44;;;8.09;100.00
45731;BME280;31440;48.584;13.460;2023-03-14T10:11:55;95223.81;;;8.24;100.00
45731;BME280;31440;48.584;13.460;2023-03-14T10:15:10;95230.06;;;8.52;100.00
45731;BME280;31440;48.584;13.460;2023-03-14T10:18:15;95226.19;;;8.59;100.00
45731;BME280;31440;48.584;13.460;2023-03-14T10:21:27;95220.66;;;8.65;100.00
45731;BME280;31440;48.584;13.460;2023-03-14T10:24:34;95219.81;;;8.64;100.00
45731;BME280;31440;48.584;13.460;2023-03-14T10:27:39;95218.50;;;8.57;100.00
45731;BME280;31440;48.584;13.460;2023-03-14T10:30:45;95212.94;;;8.18;100.00
45731;BME280;31440;48.584;13.460;2023-03-14T10:33:58;95210.38;;;8.33;100.00
45731;BME280;31440;48.584;13.460;2023-03-14T10:37:07;95205.59;;;8.10;100.00
45731;BME280;31440;48.584;13.460;2023-03-14T10:40:13;95213.38;;;8.26;100.00
45731;BME280;31440;48.584;13.460;2023-03-14T10:43:22;95207.84;;;8.00;100.00
45731;BME280;31440;48.584;13.460;2023-03-14T10:46:32;95209.69;;;7.98;100.00
45731;BME280;31440;48.584;13.460;2023-03-14T10:49:57;95212.81;;;8.21;100.00
45731;BME280;31440;48.584;13.460;2023-03-14T10:53:18;95220.44;;;7.91;100.00
45731;BME280;31440;48.584;13.460;2023-03-14T10:56:25;95211.44;;;8.14;100.00
45731;BME280;31440;48.584;13.460;2023-03-14T10:59:41;95204.81;;;8.39;100.00
45731;BME280;31440;48.584;13.460;2023-03-14T11:06:20;95192.16;;;8.65;100.00
45731;BME280;31440;48.584;13.460;2023-03-14T11:12:41;95197.31;;;8.95;100.00
45731;BME280;31440;48.584;13.460;2023-03-14T11:16:01;95195.03;;;8.90;100.00
45731;BME280;31440;48.584;13.460;2023-03-14T11:19:20;95195.56;;;8.51;100.00
45731;BME280;31440;48.584;13.460;2023-03-14T11:22:43;95192.75;;;8.24;100.00
45731;BME280;31440;48.584;13.460;2023-03-14T11:26:01;95193.31;;;8.14;100.00
45731;BME280;31440;48.584;13.460;2023-03-14T11:29:26;95183.03;;;8.12;100.00
45731;BME280;31440;48.584;13.460;2023-03-14T11:35:54;95173.59;;;8.27;100.00
45731;BME280;31440;48.584;13.460;2023-03-14T11:39:00;95174.88;;;8.35;100.00
45731;BME280;31440;48.584;13.460;2023-03-14T11:42:04;95173.41;;;8.46;100.00
45731;BME280;31440;48.584;13.460;2023-03-14T11:45:19;95174.88;;;8.20;100.00
45731;BME280;31440;48.584;13.460;2023-03-14T11:48:42;95163.09;;;8.14;100.00
45731;BME280;31440;48.584;13.460;2023-03-14T11:51:52;95164.50;;;8.04;100.00
45731;BME280;31440;48.584;13.460;2023-03-14T11:55:09;95154.72;;;8.25;100.00
45731;BME280;31440;48.584;13.460;2023-03-14T11:58:26;95152.50;;;8.19;100.00
45731;BME280;31440;48.584;13.460;2023-03-14T12:01:57;95137.31;;;7.81;100.00
45731;BME280;31440;48.584;13.460;2023-03-14T12:08:39;95132.22;;;7.95;100.00
45731;BME280;31440;48.584;13.460;2023-03-14T12:11:57;95147.97;;;8.22;100.00
45731;BME280;31440;48.584;13.460;2023-03-14T12:15:03;95155.84;;;8.21;100.00
45731;BME280;31440;48.584;13.460;2023-03-14T12:18:27;95150.56;;;8.06;100.00
45731;BME280;31440;48.584;13.460;2023-03-14T12:21:49;95152.09;;;7.79;100.00
45731;BME280;31440;48.584;13.460;2023-03-14T12:25:06;95145.53;;;8.35;100.00
45731;BME280;31440;48.584;13.460;2023-03-14T12:28:30;95151.63;;;8.34;100.00
45731;BME280;31440;48.584;13.460;2023-03-14T12:31:45;95148.44;;;8.44;100.00
45731;BME280;31440;48.584;13.460;2023-03-14T12:34:50;95143.03;;;9.07;100.00
45731;BME280;31440;48.584;13.460;2023-03-14T12:37:57;95135.16;;;9.09;100.00
45731;BME280;31440;48.584;13.460;2023-03-14T12:41:14;95142.66;;;9.28;100.00
45731;BME280;31440;48.584;13.460;2023-03-14T12:50:53;95146.38;;;8.79;100.00
45731;BME280;31440;48.584;13.460;2023-03-14T13:00:54;95126.06;;;8.58;100.00
45731;BME280;31440;48.584;13.460;2023-03-14T13:07:11;95128.53;;;8.45;100.00
45731;BME280;31440;48.584;13.460;2023-03-14T13:10:24;95113.91;;;8.14;100.00
45731;BME280;31440;48.584;13.460;2023-03-14T13:13:29;95119.03;;;8.00;100.00
45731;BME280;31440;48.584;13.460;2023-03-14T13:16:35;95113.22;;;8.10;100.00
45731;BME280;31440;48.584;13.460;2023-03-14T13:19:41;95104.03;;;8.05;100.00
45731;BME280;31440;48.584;13.460;2023-03-14T13:22:49;95110.81;;;8.07;100.00
45731;BME280;31440;48.584;13.460;2023-03-14T13:25:54;95102.31;;;8.51;100.00
45731;BME280;31440;48.584;13.460;2023-03-14T13:28:58;95105.16;;;8.47;100.00
45731;BME280;31440;48.584;13.460;2023-03-14T13:32:18;95101.38;;;8.52;100.00
45731;BME280;31440;48.584;13.460;2023-03-14T13:35:27;95109.13;;;8.38;100.00
45731;BME280;31440;48.584;13.460;2023-03-14T13:38:34;95108.47;;;8.34;100.00
45731;BME280;31440;48.584;13.460;2023-03-14T13:41:40;95124.03;;;8.49;100.00
45731;BME280;31440;48.584;13.460;2023-03-14T13:44:46;95116.69;;;8.71;100.00
45731;BME280;31440;48.584;13.460;2023-03-14T13:51:02;95117.06;;;10.32;100.00
45731;BME280;31440;48.584;13.460;2023-03-14T13:54:18;95119.03;;;10.81;100.00
45731;BME280;31440;48.584;13.460;2023-03-14T13:57:23;95112.59;;;10.86;100.00
45731;BME280;31440;48.584;13.460;2023-03-14T14:00:28;95112.84;;;10.57;100.00
45731;BME280;31440;48.584;13.460;2023-03-14T14:03:37;95111.47;;;10.11;100.00
45731;BME280;31440;48.584;13.460;2023-03-14T14:06:48;95120.38;;;10.07;100.00
45731;BME280;31440;48.584;13.460;2023-03-14T14:09:58;95113.34;;;10.49;100.00
45731;BME280;31440;48.584;13.460;2023-03-14T14:13:08;95113.00;;;10.28;100.00
45731;BME280;31440;48.584;13.460;2023-03-14T14:16:17;95112.31;;;10.12;100.00
45731;BME280;31440;48.584;13.460;2023-03-14T14:19:25;95109.34;;;10.18;100.00
45731;BME280;31440;48.584;13.460;2023-03-14T14:22:32;95117.25;;;10.02;100.00
45731;BME280;31440;48.584;13.460;2023-03-14T14:25:37;95115.19;;;9.66;100.00
45731;BME280;31440;48.584;13.460;2023-03-14T14:28:43;95091.16;;;9.22;100.00
45731;BME280;31440;48.584;13.460;2023-03-14T14:31:59;95131.16;;;9.18;100.00
45731;BME280;31440;48.584;13.460;2023-03-14T14:35:06;95106.53;;;9.10;100.00
45731;BME280;31440;48.584;13.460;2023-03-14T14:38:12;95129.66;;;9.56;100.00
45731;BME280;31440;48.584;13.460;2023-03-14T14:41:20;95119.13;;;8.58;100.00
45731;BME280;31440;48.584;13.460;2023-03-14T14:44:30;95124.06;;;8.77;100.00
45731;BME280;31440;48.584;13.460;2023-03-14T14:47:51;95125.47;;;8.83;100.00
45731;BME280;31440;48.584;13.460;2023-03-14T14:51:01;95128.75;;;8.86;100.00
45731;BME280;31440;48.584;13.460;2023-03-14T14:54:12;95135.75;;;8.84;100.00
45731;BME280;31440;48.584;13.460;2023-03-14T14:57:24;95134.97;;;8.54;100.00
45731;BME280;31440;48.584;13.460;2023-03-14T15:00:29;95140.56;;;8.46;100.00
45731;BME280;31440;48.584;13.460;2023-03-14T15:03:35;95117.09;;;9.22;100.00
45731;BME280;31440;48.584;13.460;2023-03-14T15:06:43;95133.63;;;9.47;100.00
45731;BME280;31440;48.584;13.460;2023-03-14T15:09:49;95123.88;;;9.65;100.00
45731;BME280;31440;48.584;13.460;2023-03-14T15:12:55;95103.13;;;9.10;100.00
45731;BME280;31440;48.584;13.460;2023-03-14T15:16:00;95144.78;;;9.64;100.00
45731;BME280;31440;48.584;13.460;2023-03-14T15:19:24;95144.25;;;10.54;100.00
45731;BME280;31440;48.584;13.460;2023-03-14T15:22:30;95144.97;;;10.16;100.00
45731;BME280;31440;48.584;13.460;2023-03-14T15:25:35;95151.72;;;9.77;100.00
45731;BME280;31440;48.584;13.460;2023-03-14T15:28:58;95155.16;;;9.21;100.00
45731;BME280;31440;48.584;13.460;2023-03-14T15:32:03;95163.84;;;8.92;100.00
45731;BME280;31440;48.584;13.460;2023-03-14T15:35:08;95180.72;;;8.23;100.00
45731;BME280;31440;48.584;13.460;2023-03-14T15:38:18;95187.38;;;8.27;100.00
45731;BME280;31440;48.584;13.460;2023-03-14T15:41:27;95199.50;;;7.95;100.00
45731;BME280;31440;48.584;13.460;2023-03-14T15:44:32;95227.78;;;7.83;100.00
45731;BME280;31440;48.584;13.460;2023-03-14T15:47:36;95203.06;;;7.77;100.00
45731;BME280;31440;48.584;13.460;2023-03-14T15:50:43;95197.34;;;7.39;100.00
45731;BME280;31440;48.584;13.460;2023-03-14T15:53:48;95237.59;;;7.27;100.00
45731;BME280;31440;48.584;13.460;2023-03-14T15:56:53;95245.06;;;6.82;100.00
45731;BME280;31440;48.584;13.460;2023-03-14T15:59:57;95268.91;;;6.69;100.00
45731;BME280;31440;48.584;13.460;2023-03-14T16:03:02;95280.44;;;6.62;100.00
45731;BME280;31440;48.584;13.460;2023-03-14T16:06:06;95290.66;;;6.47;100.00
45731;BME280;31440;48.584;13.460;2023-03-14T16:09:13;95290.41;;;6.34;100.00
45731;BME280;31440;48.584;13.460;2023-03-14T16:12:18;95300.47;;;6.40;100.00
45731;BME280;31440;48.584;13.460;2023-03-14T16:15:22;95310.84;;;6.20;100.00
45731;BME280;31440;48.584;13.460;2023-03-14T16:18:29;95326.50;;;6.15;100.00
45731;BME280;31440;48.584;13.460;2023-03-14T16:21:34;95325.53;;;6.18;100.00
45731;BME280;31440;48.584;13.460;2023-03-14T16:24:38;95325.72;;;5.94;100.00
45731;BME280;31440;48.584;13.460;2023-03-14T16:27:44;95346.63;;;5.88;100.00
45731;BME280;31440;48.584;13.460;2023-03-14T16:30:49;95367.66;;;5.99;100.00
45731;BME280;31440;48.584;13.460;2023-03-14T16:33:53;95367.38;;;5.87;100.00
45731;BME280;31440;48.584;13.460;2023-03-14T16:36:58;95362.66;;;5.76;100.00
45731;BME280;31440;48.584;13.460;2023-03-14T16:40:04;95361.16;;;5.71;100.00
45731;BME280;31440;48.584;13.460;2023-03-14T16:46:23;95393.47;;;5.79;100.00
45731;BME280;31440;48.584;13.460;2023-03-14T16:49:30;95384.72;;;5.83;100.00
45731;BME280;31440;48.584;13.460;2023-03-14T16:52:35;95393.59;;;5.96;100.00
45731;BME280;31440;48.584;13.460;2023-03-14T16:55:41;95388.44;;;5.76;100.00
45731;BME280;31440;48.584;13.460;2023-03-14T16:58:48;95420.69;;;5.66;100.00
45731;BME280;31440;48.584;13.460;2023-03-14T17:04:59;95428.50;;;5.85;100.00
45731;BME280;31440;48.584;13.460;2023-03-14T17:08:04;95429.59;;;5.79;100.00
45731;BME280;31440;48.584;13.460;2023-03-14T17:11:09;95466.13;;;6.09;100.00
45731;BME280;31440;48.584;13.460;2023-03-14T17:14:13;95488.06;;;5.99;100.00
45731;BME280;31440;48.584;13.460;2023-03-14T17:17:18;95488.91;;;5.79;100.00
45731;BME280;31440;48.584;13.460;2023-03-14T17:23:30;95531.81;;;5.60;100.00
45731;BME280;31440;48.584;13.460;2023-03-14T17:26:35;95535.72;;;5.70;100.00
45731;BME280;31440;48.584;13.460;2023-03-14T17:29:39;95546.94;;;5.47;100.00
45731;BME280;31440;48.584;13.460;2023-03-14T17:32:44;95548.13;;;5.60;100.00
45731;BME280;31440;48.584;13.460;2023-03-14T17:35:49;95563.19;;;5.49;100.00
45731;BME280;31440;48.584;13.460;2023-03-14T17:42:02;95585.28;;;5.55;100.00
45731;BME280;31440;48.584;13.460;2023-03-14T17:45:07;95598.53;;;5.24;100.00
45731;BME280;31440;48.584;13.460;2023-03-14T17:48:11;95601.25;;;5.43;100.00
45731;BME280;31440;48.584;13.460;2023-03-14T17:51:16;95626.13;;;5.44;100.00
45731;BME280;31440;48.584;13.460;2023-03-14T17:54:21;95627.56;;;5.29;100.00
45731;BME280;31440;48.584;13.460;2023-03-14T17:57:26;95637.13;;;5.25;100.00
45731;BME280;31440;48.584;13.460;2023-03-14T18:00:31;95626.72;;;5.28;100.00